createdAt,value
2023-05-05T00:00:37.094Z,6.10
2023-05-05T00:03:03.773Z,7.50
2023-05-05T00:05:30.472Z,6.68
2023-05-05T00:07:57.057Z,6.20
2023-05-05T00:10:23.821Z,8.63
2023-05-05T00:12:50.621Z,8.77
2023-05-05T00:15:17.302Z,7.05
2023-05-05T00:17:43.980Z,4.97
2023-05-05T00:20:11.116Z,7.65
2023-05-05T00:22:37.773Z,12.02
2023-05-05T00:25:04.670Z,8.40
2023-05-05T00:27:31.276Z,7.90
2023-05-05T00:29:57.961Z,7.60
2023-05-05T00:32:24.661Z,8.88
2023-05-05T00:34:51.261Z,8.20
2023-05-05T00:37:17.904Z,10.02
2023-05-05T00:39:44.754Z,9.45
2023-05-05T00:42:11.389Z,7.60
2023-05-05T00:44:41.576Z,7.72
2023-05-05T00:47:11.420Z,9.98
2023-05-05T00:49:38.314Z,8.02
2023-05-05T00:52:05.161Z,6.35
2023-05-05T00:54:31.736Z,8.93
2023-05-05T00:56:58.338Z,8.15
2023-05-05T00:59:24.979Z,9.73
2023-05-05T01:01:51.613Z,9.95
2023-05-05T01:04:18.288Z,9.43
2023-05-05T01:06:55.852Z,9.73
2023-05-05T01:09:45.161Z,6.35
2023-05-05T01:12:33.296Z,10.48
2023-05-05T01:15:33.512Z,9.52
2023-05-05T01:18:11.577Z,13.82
2023-05-05T01:20:55.034Z,12.00
2023-05-05T01:23:44.379Z,10.10
2023-05-05T01:26:55.302Z,10.75
2023-05-05T01:29:41.374Z,12.52
2023-05-05T01:32:14.931Z,11.10
2023-05-05T01:34:48.050Z,11.10
2023-05-05T01:37:26.918Z,12.73
2023-05-05T01:39:56.335Z,8.95
2023-05-05T01:42:22.971Z,9.10
2023-05-05T01:44:49.616Z,8.57
2023-05-05T01:47:16.702Z,10.30
2023-05-05T01:49:43.968Z,8.32
2023-05-05T01:52:10.603Z,12.50
2023-05-05T01:54:37.211Z,8.38
2023-05-05T01:57:03.965Z,10.05
2023-05-05T01:59:31.113Z,9.55
2023-05-05T02:01:57.730Z,12.77
2023-05-05T02:04:24.396Z,10.07
2023-05-05T02:06:51.025Z,9.23
2023-05-05T02:09:17.665Z,8.07
2023-05-05T02:11:44.361Z,11.77
2023-05-05T02:14:11.004Z,9.32
2023-05-05T02:16:38.029Z,8.93
2023-05-05T02:19:04.845Z,12.15
2023-05-05T02:21:31.918Z,10.35
2023-05-05T02:23:58.721Z,7.07
2023-05-05T02:26:25.431Z,7.97
2023-05-05T02:29:03.112Z,6.85
2023-05-05T02:31:30.074Z,9.90
2023-05-05T02:33:57.439Z,7.80
2023-05-05T02:36:27.278Z,9.05
2023-05-05T02:38:59.079Z,7.28
2023-05-05T02:41:25.743Z,6.78
2023-05-05T02:43:52.471Z,11.20
2023-05-05T02:46:19.361Z,8.45
2023-05-05T02:48:46.040Z,7.72
2023-05-05T02:51:12.675Z,7.20
2023-05-05T02:53:39.306Z,8.52
2023-05-05T02:56:10.619Z,9.20
2023-05-05T02:59:05.818Z,7.07
2023-05-05T03:01:51.046Z,6.40
2023-05-05T03:04:34.729Z,7.22
2023-05-05T03:07:11.901Z,8.20
2023-05-05T03:09:41.755Z,9.00
2023-05-05T03:12:12.130Z,9.40
2023-05-05T03:14:42.523Z,6.78
2023-05-05T03:17:12.221Z,5.70
2023-05-05T03:19:41.402Z,8.27
2023-05-05T03:22:08.008Z,8.02
2023-05-05T03:24:34.642Z,8.48
2023-05-05T03:27:01.309Z,9.15
2023-05-05T03:29:27.968Z,9.07
2023-05-05T03:31:54.647Z,9.70
2023-05-05T03:34:21.347Z,9.25
2023-05-05T03:36:47.910Z,8.95
2023-05-05T03:39:14.549Z,9.70
2023-05-05T03:41:41.163Z,11.10
2023-05-05T03:44:07.804Z,11.68
2023-05-05T03:46:34.459Z,10.00
2023-05-05T03:49:01.064Z,10.00
2023-05-05T03:51:27.714Z,10.45
2023-05-05T03:53:54.377Z,11.00
2023-05-05T03:56:20.938Z,11.50
2023-05-05T03:58:47.663Z,11.00
2023-05-05T04:01:14.258Z,11.32
2023-05-05T04:03:40.978Z,10.32
2023-05-05T04:06:07.726Z,16.90
2023-05-05T04:08:34.387Z,12.07
2023-05-05T04:11:00.954Z,13.95
2023-05-05T04:13:27.626Z,13.93
2023-05-05T04:15:54.295Z,11.98
2023-05-05T04:18:20.915Z,14.07
2023-05-05T04:20:47.496Z,14.23
2023-05-05T04:23:14.108Z,13.60
2023-05-05T04:25:40.692Z,15.20
2023-05-05T04:28:07.336Z,13.80
2023-05-05T04:30:33.924Z,16.98
2023-05-05T04:33:00.598Z,15.80
2023-05-05T04:35:27.224Z,14.80
2023-05-05T04:37:53.878Z,19.08
2023-05-05T04:40:20.662Z,17.48
2023-05-05T04:42:47.283Z,18.48
2023-05-05T04:45:13.867Z,17.20
2023-05-05T04:47:40.667Z,17.45
2023-05-05T04:50:08.150Z,19.02
2023-05-05T04:52:35.049Z,18.65
2023-05-05T04:55:01.681Z,20.38
2023-05-05T04:57:29.390Z,21.02
2023-05-05T04:59:56.047Z,21.10
2023-05-05T05:02:23.100Z,20.15
2023-05-05T05:04:49.873Z,18.02
2023-05-05T05:07:16.560Z,21.23
2023-05-05T05:09:43.348Z,19.55
2023-05-05T05:12:10.013Z,20.10
2023-05-05T05:14:37.760Z,18.13
2023-05-05T05:17:04.957Z,19.67
2023-05-05T05:19:31.729Z,20.88
2023-05-05T05:21:58.406Z,19.08
2023-05-05T05:24:25.054Z,19.65
2023-05-05T05:26:51.851Z,20.40
2023-05-05T05:29:18.537Z,19.00
2023-05-05T05:31:45.216Z,19.50
2023-05-05T05:34:12.906Z,18.95
2023-05-05T05:36:39.822Z,19.27
2023-05-05T05:39:06.437Z,19.55
2023-05-05T05:41:33.134Z,20.13
2023-05-05T05:43:59.818Z,18.23
2023-05-05T05:46:26.532Z,20.00
2023-05-05T05:48:53.243Z,17.38
2023-05-05T05:51:19.867Z,23.17
2023-05-05T05:53:46.532Z,18.38
2023-05-05T05:56:13.151Z,19.17
2023-05-05T05:58:39.845Z,17.30
2023-05-05T06:01:06.424Z,17.92
2023-05-05T06:03:33.190Z,16.10
2023-05-05T06:05:59.863Z,16.45
2023-05-05T06:08:26.448Z,18.23
2023-05-05T06:10:53.130Z,14.43
2023-05-05T06:13:19.745Z,14.55
2023-05-05T06:15:46.458Z,13.50
2023-05-05T06:18:13.578Z,17.05
2023-05-05T06:20:40.654Z,12.00
2023-05-05T06:23:08.982Z,15.50
2023-05-05T06:25:36.139Z,15.55
2023-05-05T06:28:03.269Z,16.23
2023-05-05T06:30:30.028Z,15.52
2023-05-05T06:32:56.649Z,14.95
2023-05-05T06:35:23.354Z,16.70
2023-05-05T06:37:50.198Z,12.07
2023-05-05T06:40:16.910Z,15.32
2023-05-05T06:42:43.591Z,13.60
2023-05-05T06:45:10.754Z,12.07
2023-05-05T06:47:37.418Z,15.52
2023-05-05T06:50:04.487Z,14.15
2023-05-05T06:52:31.117Z,14.52
2023-05-05T06:54:57.824Z,13.80
2023-05-05T06:57:24.610Z,12.18
2023-05-05T06:59:51.299Z,11.48
2023-05-05T07:02:17.987Z,11.13
2023-05-05T07:04:44.633Z,9.15
2023-05-05T07:07:11.411Z,12.82
2023-05-05T07:09:38.021Z,14.13
2023-05-05T07:12:04.875Z,8.93
2023-05-05T07:14:31.543Z,12.43
2023-05-05T07:16:58.479Z,9.88
2023-05-05T07:19:25.319Z,9.73
2023-05-05T07:21:52.034Z,9.57
2023-05-05T07:24:20.127Z,7.97
2023-05-05T07:26:46.902Z,6.13
2023-05-05T07:29:13.588Z,7.07
2023-05-05T07:31:40.266Z,7.63
2023-05-05T07:34:07.026Z,8.77
2023-05-05T07:36:33.644Z,7.93
2023-05-05T07:39:00.325Z,8.70
2023-05-05T07:41:26.920Z,8.80
2023-05-05T07:43:53.603Z,6.72
2023-05-05T07:46:20.314Z,5.45
2023-05-05T07:48:46.989Z,11.38
2023-05-05T07:51:13.621Z,7.57
2023-05-05T07:53:41.211Z,13.35
2023-05-05T07:56:07.816Z,12.73
2023-05-05T07:58:34.449Z,6.50
2023-05-05T08:01:01.082Z,7.68
2023-05-05T08:03:28.155Z,10.18
2023-05-05T08:05:56.258Z,9.93
2023-05-05T08:08:24.345Z,7.25
2023-05-05T08:10:51.870Z,6.95
2023-05-05T08:13:21.274Z,5.93
2023-05-05T08:18:18.600Z,7.55
2023-05-05T08:20:46.254Z,7.20
2023-05-05T08:23:13.298Z,4.72
2023-05-05T08:25:41.273Z,4.70
2023-05-05T08:28:09.267Z,6.63
2023-05-05T08:30:36.519Z,5.45
2023-05-05T08:33:03.593Z,6.10
2023-05-05T08:35:30.884Z,5.10
2023-05-05T08:38:02.666Z,6.05
2023-05-05T08:40:31.970Z,7.95
2023-05-05T08:42:59.674Z,6.05
2023-05-05T08:45:28.763Z,6.22
2023-05-05T08:47:56.944Z,18.25
2023-05-05T08:50:26.112Z,10.50
2023-05-05T08:53:09.692Z,5.35
2023-05-05T08:55:52.016Z,6.53
2023-05-05T08:58:19.011Z,5.07
2023-05-05T09:00:46.256Z,8.32
2023-05-05T09:03:13.198Z,6.32
2023-05-05T09:05:40.148Z,8.40
2023-05-05T09:08:06.936Z,13.10
2023-05-05T09:10:33.745Z,24.60
2023-05-05T09:13:00.575Z,10.88
2023-05-05T09:15:27.359Z,19.92
2023-05-05T09:17:56.487Z,13.77
2023-05-05T09:20:23.147Z,17.67
2023-05-05T09:22:49.798Z,18.95
2023-05-05T09:25:17.671Z,20.52
2023-05-05T09:27:48.492Z,17.30
2023-05-05T09:30:16.654Z,15.63
2023-05-05T09:32:50.865Z,15.18
2023-05-05T09:35:18.447Z,11.70
2023-05-05T09:37:45.273Z,12.02
2023-05-05T09:40:13.827Z,6.03
2023-05-05T09:42:40.747Z,7.63
2023-05-05T09:45:19.320Z,10.20
2023-05-05T09:47:46.536Z,9.30
2023-05-05T09:50:13.603Z,10.00
2023-05-05T09:52:40.497Z,14.00
2023-05-05T09:55:08.694Z,9.80
2023-05-05T09:57:35.305Z,13.60
2023-05-05T10:00:02.390Z,10.60
2023-05-05T10:02:33.276Z,13.98
2023-05-05T10:05:10.198Z,13.35
2023-05-05T10:07:39.962Z,13.55
2023-05-05T10:10:09.503Z,16.92
2023-05-05T10:12:36.837Z,16.20
2023-05-05T10:15:07.964Z,13.38
2023-05-05T10:17:50.956Z,15.93
2023-05-05T10:20:25.260Z,16.52
2023-05-05T10:22:52.683Z,16.02
2023-05-05T10:25:30.056Z,13.43
2023-05-05T10:27:59.555Z,11.80
2023-05-05T10:33:12.274Z,12.40
2023-05-05T10:35:44.938Z,12.70
2023-05-05T10:38:12.490Z,8.45
2023-05-05T10:40:45.390Z,9.25
2023-05-05T10:43:13.801Z,14.02
2023-05-05T10:45:41.170Z,12.73
2023-05-05T10:48:10.366Z,8.88
2023-05-05T10:50:41.260Z,9.45
2023-05-05T10:53:21.344Z,10.15
2023-05-05T10:56:10.553Z,11.15
2023-05-05T10:58:46.903Z,14.05
2023-05-05T11:01:14.661Z,11.88
2023-05-05T11:03:41.416Z,9.60
2023-05-05T11:06:08.525Z,15.02
2023-05-05T11:08:39.033Z,9.60
2023-05-05T11:11:05.834Z,9.65
2023-05-05T11:13:32.610Z,11.27
2023-05-05T11:15:59.915Z,9.52
2023-05-05T11:18:59.044Z,8.10
2023-05-05T11:21:25.740Z,7.70
2023-05-05T11:23:52.363Z,10.82
2023-05-05T11:26:48.577Z,10.00
2023-05-05T11:29:15.387Z,10.30
2023-05-05T11:31:42.244Z,8.77
2023-05-05T11:34:47.509Z,8.10
2023-05-05T11:37:14.133Z,8.30
2023-05-05T11:40:02.707Z,19.83
2023-05-05T11:42:29.462Z,29.58
2023-05-05T11:44:56.291Z,18.20
2023-05-05T11:47:22.923Z,49.20
2023-05-05T11:49:49.711Z,11.13
2023-05-05T11:52:16.443Z,10.95
2023-05-05T11:54:44.928Z,18.90
2023-05-05T11:57:11.646Z,16.90
2023-05-05T11:59:50.089Z,7.30
2023-05-05T12:02:17.696Z,8.65
2023-05-05T12:04:44.301Z,8.65
2023-05-05T12:07:20.731Z,8.18
2023-05-05T12:09:47.974Z,11.27
2023-05-05T12:12:14.806Z,7.93
2023-05-05T12:14:45.597Z,6.63
2023-05-05T12:17:12.249Z,4.10
2023-05-05T12:19:47.787Z,5.00
2023-05-05T12:22:28.144Z,3.90
2023-05-05T12:24:55.543Z,5.82
2023-05-05T12:27:22.194Z,4.93
2023-05-05T12:29:48.983Z,7.30
2023-05-05T12:32:22.806Z,7.45
2023-05-05T12:34:50.828Z,11.48
2023-05-05T12:37:17.485Z,10.88
2023-05-05T12:39:44.168Z,9.25
2023-05-05T12:42:10.951Z,8.77
2023-05-05T12:44:38.139Z,8.43
2023-05-05T12:47:05.010Z,8.32
2023-05-05T12:49:31.838Z,10.88
2023-05-05T12:51:58.738Z,9.50
2023-05-05T12:54:25.625Z,10.50
2023-05-05T12:56:52.284Z,8.48
2023-05-05T12:59:22.297Z,11.43
2023-05-05T13:01:53.100Z,7.80
2023-05-05T13:04:21.079Z,8.05
2023-05-05T13:06:48.748Z,7.95
2023-05-05T13:09:25.202Z,7.35
2023-05-05T13:11:52.418Z,7.68
2023-05-05T13:14:19.087Z,11.57
2023-05-05T13:16:45.833Z,5.57
2023-05-05T13:19:12.492Z,4.47
2023-05-05T13:21:39.203Z,6.25
2023-05-05T13:24:23.050Z,4.72
2023-05-05T13:26:52.953Z,8.77
2023-05-05T13:29:19.707Z,4.75
2023-05-05T13:31:46.456Z,4.90
2023-05-05T13:34:13.223Z,5.00
2023-05-05T13:36:39.926Z,2.95
2023-05-05T13:39:06.593Z,4.88
2023-05-05T13:41:48.674Z,4.72
2023-05-05T13:44:15.340Z,2.75
2023-05-05T13:46:42.235Z,3.22
2023-05-05T13:49:08.905Z,4.78
2023-05-05T13:51:35.640Z,4.07
2023-05-05T13:54:04.921Z,5.45
2023-05-05T13:56:31.539Z,4.53
2023-05-05T13:58:58.156Z,5.30
2023-05-05T14:01:24.888Z,6.28
2023-05-05T14:03:51.633Z,5.65
2023-05-05T14:06:18.308Z,4.00
2023-05-05T14:08:45.074Z,6.28
2023-05-05T14:11:11.729Z,4.07
2023-05-05T14:13:38.437Z,5.55
2023-05-05T14:16:05.377Z,6.38
2023-05-05T14:18:31.983Z,4.25
2023-05-05T14:20:58.624Z,5.72
2023-05-05T14:23:25.274Z,5.25
2023-05-05T14:25:51.988Z,5.50
2023-05-05T14:28:18.677Z,5.63
2023-05-05T14:30:45.321Z,3.22
2023-05-05T14:33:11.993Z,4.13
2023-05-05T14:35:38.685Z,4.95
2023-05-05T14:38:05.489Z,5.50
2023-05-05T14:40:32.250Z,3.17
2023-05-05T14:42:58.907Z,4.35
2023-05-05T14:45:25.588Z,3.60
2023-05-05T14:47:52.958Z,4.22
2023-05-05T14:50:19.665Z,4.88
2023-05-05T14:52:46.393Z,4.43
2023-05-05T14:55:13.163Z,4.38
2023-05-05T14:57:39.808Z,3.65
2023-05-05T15:00:07.219Z,4.45
2023-05-05T15:02:33.946Z,4.85
2023-05-05T15:05:00.792Z,5.25
2023-05-05T15:07:27.463Z,9.85
2023-05-05T15:09:55.751Z,8.35
2023-05-05T15:12:22.860Z,5.65
2023-05-05T15:14:49.563Z,6.78
2023-05-05T15:17:16.902Z,5.63
2023-05-05T15:19:43.614Z,5.03
2023-05-05T15:22:10.336Z,5.60
2023-05-05T15:24:36.973Z,5.78
2023-05-05T15:27:03.682Z,6.07
2023-05-05T15:29:30.304Z,6.85
2023-05-05T15:31:57.065Z,7.45
2023-05-05T15:34:23.701Z,7.03
2023-05-05T15:36:50.329Z,10.68
2023-05-05T15:39:17.025Z,5.97
2023-05-05T15:41:43.689Z,7.13
2023-05-05T15:44:12.284Z,7.63
2023-05-05T15:46:41.635Z,7.22
2023-05-05T15:49:08.332Z,8.93
2023-05-05T15:51:34.989Z,7.00
2023-05-05T15:54:01.647Z,7.97
2023-05-05T15:56:28.442Z,8.88
2023-05-05T15:58:55.171Z,9.30
2023-05-05T16:01:21.952Z,7.40
2023-05-05T16:03:48.604Z,6.68
2023-05-05T16:06:15.293Z,6.53
2023-05-05T16:08:41.967Z,8.57
2023-05-05T16:11:08.811Z,9.20
2023-05-05T16:13:35.407Z,7.55
2023-05-05T16:16:02.045Z,9.88
2023-05-05T16:18:28.822Z,7.03
2023-05-05T16:20:55.395Z,9.45
2023-05-05T16:23:22.052Z,10.18
2023-05-05T16:25:48.768Z,9.18
2023-05-05T16:28:18.781Z,10.55
2023-05-05T16:30:45.417Z,9.65
2023-05-05T16:33:12.066Z,7.88
2023-05-05T16:35:38.768Z,9.52
2023-05-05T16:38:05.452Z,9.75
2023-05-05T16:40:32.177Z,8.82
2023-05-05T16:42:58.787Z,9.60
2023-05-05T16:45:25.430Z,10.05
2023-05-05T16:47:54.192Z,11.02
2023-05-05T16:50:21.570Z,10.60
2023-05-05T16:52:48.457Z,8.27
2023-05-05T16:55:15.241Z,13.85
2023-05-05T16:57:41.846Z,11.35
2023-05-05T17:00:11.962Z,12.52
2023-05-05T17:02:38.631Z,9.10
2023-05-05T17:05:05.920Z,11.52
2023-05-05T17:07:32.685Z,9.02
2023-05-05T17:09:59.417Z,10.27
2023-05-05T17:12:26.079Z,12.05
2023-05-05T17:14:52.799Z,8.90
2023-05-05T17:17:19.508Z,12.10
2023-05-05T17:19:46.183Z,11.30
2023-05-05T17:22:12.922Z,9.18
2023-05-05T17:24:40.094Z,10.88
2023-05-05T17:27:06.828Z,10.00
2023-05-05T17:29:33.505Z,9.18
2023-05-05T17:32:03.156Z,10.93
2023-05-05T17:34:29.800Z,10.82
2023-05-05T17:36:56.432Z,8.73
2023-05-05T17:39:23.046Z,9.20
2023-05-05T17:41:49.718Z,10.85
2023-05-05T17:44:16.967Z,8.95
2023-05-05T17:46:43.650Z,10.15
2023-05-05T17:49:10.388Z,12.75
2023-05-05T17:51:37.068Z,10.63
2023-05-05T17:54:03.909Z,10.20
2023-05-05T17:56:30.599Z,8.93
2023-05-05T17:58:57.400Z,13.02
2023-05-05T18:01:24.684Z,10.93
2023-05-05T18:03:51.524Z,11.57
2023-05-05T18:06:18.388Z,9.55
2023-05-05T18:08:45.059Z,9.02
2023-05-05T18:11:11.674Z,9.25
2023-05-05T18:13:38.466Z,8.95
2023-05-05T18:16:05.528Z,11.82
2023-05-05T18:18:32.375Z,9.57
2023-05-05T18:20:59.069Z,10.52
2023-05-05T18:23:25.767Z,11.02
2023-05-05T18:25:52.454Z,8.95
2023-05-05T18:28:19.157Z,11.00
2023-05-05T18:30:45.860Z,13.40
2023-05-05T18:33:12.559Z,11.10
2023-05-05T18:35:39.193Z,11.55
2023-05-05T18:38:05.902Z,13.07
2023-05-05T18:40:32.660Z,11.38
2023-05-05T18:42:59.312Z,10.57
2023-05-05T18:45:25.981Z,11.13
2023-05-05T18:47:52.670Z,11.63
2023-05-05T18:50:19.342Z,10.75
2023-05-05T18:52:46.060Z,9.40
2023-05-05T18:55:12.760Z,12.13
2023-05-05T18:57:39.404Z,11.73
2023-05-05T19:00:06.857Z,12.30
2023-05-05T19:02:33.527Z,13.63
2023-05-05T19:05:00.247Z,15.35
2023-05-05T19:07:34.917Z,13.02
2023-05-05T19:10:06.534Z,14.52
2023-05-05T19:12:33.183Z,16.45
2023-05-05T19:14:59.827Z,17.05
2023-05-05T19:17:26.508Z,18.42
2023-05-05T19:19:53.186Z,14.20
2023-05-05T19:22:19.784Z,16.23
2023-05-05T19:24:46.494Z,15.63
2023-05-05T19:27:14.762Z,16.63
2023-05-05T19:29:43.241Z,16.48
2023-05-05T19:32:09.939Z,13.07
2023-05-05T19:34:36.820Z,17.48
2023-05-05T19:37:03.471Z,15.82
2023-05-05T19:39:30.090Z,15.50
2023-05-05T19:41:56.697Z,18.00
2023-05-05T19:44:23.416Z,17.20
2023-05-05T19:46:50.054Z,18.08
2023-05-05T19:49:16.805Z,19.20
2023-05-05T19:51:43.479Z,15.40
2023-05-05T19:54:10.095Z,18.58
2023-05-05T19:56:36.838Z,17.33
2023-05-05T19:59:05.813Z,18.42
2023-05-05T20:01:32.617Z,15.63
2023-05-05T20:03:59.420Z,19.65
2023-05-05T20:06:26.176Z,18.13
2023-05-05T20:08:52.918Z,16.80
2023-05-05T20:11:19.551Z,18.77
2023-05-05T20:13:46.387Z,17.40
2023-05-05T20:16:13.242Z,15.93
2023-05-05T20:18:39.968Z,18.20
2023-05-05T20:21:06.670Z,17.95
2023-05-05T20:23:33.349Z,17.15
2023-05-05T20:26:00.196Z,21.08
2023-05-05T20:28:26.836Z,17.20
2023-05-05T20:30:53.616Z,17.48
2023-05-05T20:33:20.229Z,17.05
2023-05-05T20:35:47.146Z,15.45
2023-05-05T20:38:13.953Z,18.10
2023-05-05T20:40:40.653Z,15.25
2023-05-05T20:43:07.372Z,18.55
2023-05-05T20:45:34.675Z,16.67
2023-05-05T20:48:04.104Z,19.63
2023-05-05T20:50:30.997Z,14.77
2023-05-05T20:52:57.716Z,18.80
2023-05-05T20:55:25.336Z,18.05
2023-05-05T20:57:51.980Z,17.55
2023-05-05T21:00:18.706Z,19.13
2023-05-05T21:02:45.462Z,15.77
2023-05-05T21:05:12.348Z,16.15
2023-05-05T21:07:39.098Z,17.83
2023-05-05T21:10:06.378Z,20.35
2023-05-05T21:12:33.690Z,17.25
2023-05-05T21:15:00.417Z,19.83
2023-05-05T21:17:27.162Z,16.38
2023-05-05T21:19:53.973Z,17.27
2023-05-05T21:22:20.820Z,21.38
2023-05-05T21:24:47.501Z,15.05
2023-05-05T21:27:14.284Z,17.92
2023-05-05T21:29:41.129Z,18.90
2023-05-05T21:32:08.602Z,17.02
2023-05-05T21:34:35.325Z,17.48
2023-05-05T21:37:02.045Z,18.80
2023-05-05T21:39:28.908Z,20.58
2023-05-05T21:41:55.544Z,16.98
2023-05-05T21:44:22.278Z,17.58
2023-05-05T21:46:49.162Z,17.45
2023-05-05T21:49:16.860Z,21.35
2023-05-05T21:51:43.746Z,19.42
2023-05-05T21:54:10.486Z,19.40
2023-05-05T21:56:37.325Z,19.25
2023-05-05T21:59:04.761Z,19.83
2023-05-05T22:01:31.751Z,22.30
2023-05-05T22:03:58.693Z,21.58
2023-05-05T22:06:25.400Z,21.33
2023-05-05T22:08:52.390Z,21.25
2023-05-05T22:11:19.279Z,21.38
2023-05-05T22:13:46.385Z,21.00
2023-05-05T22:16:14.907Z,21.52
2023-05-05T22:18:41.553Z,21.25
2023-05-05T22:21:08.192Z,21.83
2023-05-05T22:23:34.916Z,22.10
2023-05-05T22:26:01.574Z,22.52
2023-05-05T22:28:28.196Z,23.92
2023-05-05T22:30:54.937Z,25.25
2023-05-05T22:33:21.600Z,23.45
2023-05-05T22:35:48.232Z,24.63
2023-05-05T22:38:14.906Z,21.58
2023-05-05T22:40:41.516Z,23.48
2023-05-05T22:43:08.192Z,25.63
2023-05-05T22:45:34.790Z,23.42
2023-05-05T22:48:01.520Z,24.35
2023-05-05T22:50:28.287Z,23.15
2023-05-05T22:52:54.979Z,24.73
2023-05-05T22:55:21.688Z,23.80
2023-05-05T22:57:48.390Z,22.67
2023-05-05T23:00:15.133Z,21.90
2023-05-05T23:02:41.812Z,23.25
2023-05-05T23:05:09.043Z,25.50
2023-05-05T23:07:35.863Z,25.08
2023-05-05T23:10:03.153Z,23.95
2023-05-05T23:12:29.830Z,23.38
2023-05-05T23:14:56.478Z,27.55
2023-05-05T23:17:23.150Z,24.85
2023-05-05T23:19:49.807Z,24.00
2023-05-05T23:22:16.434Z,23.02
2023-05-05T23:24:43.083Z,25.35
2023-05-05T23:27:09.774Z,26.10
2023-05-05T23:29:36.417Z,25.00
2023-05-05T23:32:03.036Z,24.00
2023-05-05T23:34:29.682Z,25.67
2023-05-05T23:36:56.325Z,28.73
2023-05-05T23:39:22.957Z,26.35
2023-05-05T23:41:49.586Z,23.80
2023-05-05T23:44:16.252Z,24.67
2023-05-05T23:46:43.087Z,23.92
2023-05-05T23:49:09.886Z,26.58
2023-05-05T23:51:36.557Z,30.23
2023-05-05T23:54:03.278Z,25.60
2023-05-05T23:56:29.925Z,25.05
2023-05-05T23:58:56.556Z,27.40
